Terminal Aerodrome Forecast
Issued by NWS Cleveland, OH

Home | Current Version | Previous Version | Graphics & Text | Print | Product List | Glossary On
Versions: 1 2 3 4 5 6 7 8 9 10 11 12 13 14 15 16 17 18 19 20 21 22 23 24 25 26 27
560
FTUS41 KCLE 171138
TAFCLE
TAF
KCLE 171138Z 1712/1818 18006KT P6SM BKN035
     FM171600 18008KT P6SM OVC200
     FM172200 20008KT P6SM OVC100
     FM180200 22010KT P6SM OVC035
     FM180600 26010KT P6SM BKN030
     FM181300 23008KT P6SM SCT030 BKN200=

USA.gov is the U.S. government's official web portal to all federal, state and local government web resources and services.